createdAt,value
2022-10-30T00:00:04.365Z,15.80
2022-10-30T00:03:02.452Z,15.70
2022-10-30T00:06:00.422Z,16.90
2022-10-30T00:08:57.849Z,18.80
2022-10-30T00:11:55.324Z,16.10
2022-10-30T00:14:52.767Z,16.00
2022-10-30T00:17:50.221Z,15.50
2022-10-30T00:20:47.725Z,14.40
2022-10-30T00:23:45.263Z,16.10
2022-10-30T00:26:42.704Z,15.50
2022-10-30T00:29:40.173Z,15.50
2022-10-30T00:32:37.621Z,17.00
2022-10-30T00:35:35.083Z,15.10
2022-10-30T00:38:32.566Z,11.90
2022-10-30T00:41:29.997Z,16.90
2022-10-30T00:44:27.462Z,11.80
2022-10-30T00:47:24.913Z,11.20
2022-10-30T00:50:22.398Z,11.30
2022-10-30T00:53:20.326Z,11.00
2022-10-30T00:56:17.759Z,11.80
2022-10-30T00:59:15.213Z,10.70
2022-10-30T01:02:12.714Z,9.80
2022-10-30T01:08:12.609Z,11.50
2022-10-30T01:11:10.098Z,10.40
2022-10-30T01:14:07.599Z,9.60
2022-10-30T01:17:05.048Z,9.20
2022-10-30T01:23:04.830Z,9.20
2022-10-30T01:26:02.274Z,9.20
2022-10-30T01:28:59.756Z,10.90
2022-10-30T01:31:57.218Z,10.70
2022-10-30T01:34:54.672Z,9.10
2022-10-30T01:37:52.109Z,9.70
2022-10-30T01:40:49.593Z,11.90
2022-10-30T01:43:47.039Z,9.40
2022-10-30T01:46:44.526Z,9.50
2022-10-30T01:49:42.018Z,9.10
2022-10-30T01:52:39.772Z,9.30
2022-10-30T01:55:37.239Z,9.70
2022-10-30T01:58:34.669Z,8.50
2022-10-30T02:01:33.525Z,9.50
2022-10-30T02:04:31.102Z,8.20
2022-10-30T02:07:28.551Z,7.70
2022-10-30T02:10:25.949Z,7.50
2022-10-30T02:13:23.403Z,9.90
2022-10-30T02:16:20.849Z,9.00
2022-10-30T02:19:18.296Z,7.50
2022-10-30T02:22:17.017Z,8.20
2022-10-30T02:25:14.505Z,7.20
2022-10-30T02:28:12.007Z,7.90
2022-10-30T02:31:09.450Z,7.00
2022-10-30T02:34:06.915Z,8.00
2022-10-30T02:37:04.360Z,7.50
2022-10-30T02:40:01.814Z,7.90
2022-10-30T02:42:59.719Z,9.00
2022-10-30T02:45:57.257Z,7.60
2022-10-30T02:48:54.704Z,8.30
2022-10-30T02:51:52.159Z,7.90
2022-10-30T02:54:49.594Z,7.70
2022-10-30T02:57:47.067Z,7.90
2022-10-30T03:00:44.492Z,9.70
2022-10-30T03:03:41.954Z,7.20
2022-10-30T03:06:39.403Z,7.60
2022-10-30T03:09:36.846Z,6.90
2022-10-30T03:12:34.310Z,8.30
2022-10-30T03:15:31.806Z,7.70
2022-10-30T03:18:29.277Z,6.30
2022-10-30T03:21:26.734Z,5.90
2022-10-30T03:24:24.203Z,6.90
2022-10-30T03:27:21.651Z,5.70
2022-10-30T03:30:19.102Z,5.70
2022-10-30T03:33:16.584Z,4.90
2022-10-30T03:36:14.045Z,5.10
2022-10-30T03:39:11.532Z,4.40
2022-10-30T03:42:08.985Z,5.00
2022-10-30T03:45:06.426Z,4.80
2022-10-30T03:48:03.862Z,4.80
2022-10-30T03:51:01.315Z,5.20
2022-10-30T03:53:58.763Z,6.50
2022-10-30T03:56:56.204Z,5.30
2022-10-30T03:59:53.663Z,5.60
2022-10-30T04:02:51.096Z,5.10
2022-10-30T04:05:51.141Z,5.90
2022-10-30T04:08:48.579Z,5.80
2022-10-30T04:11:46.164Z,5.90
2022-10-30T04:14:43.625Z,5.90
2022-10-30T04:17:41.083Z,6.70
2022-10-30T04:20:38.555Z,4.80
2022-10-30T04:23:36.023Z,5.50
2022-10-30T04:26:33.622Z,4.60
2022-10-30T04:29:31.068Z,7.60
2022-10-30T04:32:28.506Z,6.40
2022-10-30T04:35:25.978Z,4.90
2022-10-30T04:38:23.428Z,7.10
2022-10-30T04:41:20.864Z,4.80
2022-10-30T04:44:18.343Z,5.90
2022-10-30T04:47:17.418Z,5.40
2022-10-30T04:50:14.940Z,5.60
2022-10-30T04:53:12.409Z,7.80
2022-10-30T04:56:09.861Z,5.10
2022-10-30T04:59:07.398Z,5.10
2022-10-30T05:02:05.044Z,4.40
2022-10-30T05:05:02.656Z,4.40
2022-10-30T05:08:00.541Z,3.50
2022-10-30T05:10:58.520Z,3.70
2022-10-30T05:13:56.074Z,3.60
2022-10-30T05:16:54.660Z,3.40
2022-10-30T05:19:52.097Z,3.90
2022-10-30T05:22:49.557Z,3.70
2022-10-30T05:25:47.012Z,4.10
2022-10-30T05:28:44.459Z,5.30
2022-10-30T05:31:41.929Z,4.00
2022-10-30T05:34:39.396Z,3.60
2022-10-30T05:37:36.840Z,3.70
2022-10-30T05:40:34.286Z,4.10
2022-10-30T05:43:31.710Z,3.80
2022-10-30T05:46:29.154Z,3.80
2022-10-30T05:49:26.805Z,3.50
2022-10-30T05:52:24.251Z,4.20
2022-10-30T05:55:21.712Z,4.70
2022-10-30T05:58:19.170Z,3.70
2022-10-30T06:01:16.684Z,3.80
2022-10-30T06:04:14.158Z,5.40
2022-10-30T06:07:11.616Z,4.60
2022-10-30T06:10:09.072Z,4.40
2022-10-30T06:13:06.553Z,5.80
2022-10-30T06:16:03.993Z,4.50
2022-10-30T06:19:01.430Z,4.60
2022-10-30T06:21:58.897Z,5.30
2022-10-30T06:24:56.337Z,4.70
2022-10-30T06:27:53.901Z,5.30
2022-10-30T06:30:51.341Z,5.20
2022-10-30T06:33:48.786Z,4.90
2022-10-30T06:36:46.286Z,4.30
2022-10-30T06:39:43.763Z,4.80
2022-10-30T06:42:41.209Z,4.40
2022-10-30T06:45:38.655Z,5.60
2022-10-30T06:48:36.119Z,5.20
2022-10-30T06:51:33.574Z,6.60
2022-10-30T06:54:31.059Z,5.90
2022-10-30T06:57:28.520Z,6.60
2022-10-30T07:00:25.958Z,6.20
2022-10-30T07:03:23.403Z,8.10
2022-10-30T07:06:20.841Z,5.70
2022-10-30T07:09:18.320Z,5.70
2022-10-30T07:12:15.793Z,4.70
2022-10-30T07:15:13.233Z,5.20
2022-10-30T07:18:10.702Z,4.20
2022-10-30T07:21:08.175Z,5.90
2022-10-30T07:24:05.611Z,5.30
2022-10-30T07:27:03.066Z,5.30
2022-10-30T07:30:00.478Z,6.20
2022-10-30T07:32:58.199Z,5.00
2022-10-30T07:35:56.044Z,4.60
2022-10-30T07:38:53.536Z,4.20
2022-10-30T07:41:51.485Z,4.30
2022-10-30T07:44:48.949Z,5.10
2022-10-30T07:47:46.434Z,4.90
2022-10-30T07:50:44.284Z,4.70
2022-10-30T07:53:42.410Z,6.20
2022-10-30T07:56:40.391Z,5.90
2022-10-30T07:59:37.977Z,4.80
2022-10-30T08:02:35.489Z,6.70
2022-10-30T08:05:33.973Z,7.60
2022-10-30T08:08:33.008Z,7.00
2022-10-30T08:11:31.002Z,9.90
2022-10-30T08:14:29.182Z,9.90
2022-10-30T08:17:26.684Z,9.50
2022-10-30T08:20:24.164Z,9.40
2022-10-30T08:23:22.479Z,10.20
2022-10-30T08:26:19.986Z,8.60
2022-10-30T08:29:17.761Z,7.80
2022-10-30T08:32:16.594Z,8.80
2022-10-30T08:35:19.461Z,7.50
2022-10-30T08:38:17.482Z,7.70
2022-10-30T08:41:14.991Z,7.20
2022-10-30T08:44:12.487Z,7.10
2022-10-30T08:47:09.951Z,7.60
2022-10-30T08:50:07.446Z,7.90
2022-10-30T08:53:04.936Z,6.20
2022-10-30T08:56:02.370Z,8.90
2022-10-30T08:58:59.839Z,6.40
2022-10-30T09:01:57.471Z,6.50
2022-10-30T09:04:55.225Z,6.90
2022-10-30T09:07:52.707Z,6.80
2022-10-30T09:10:50.162Z,9.30
2022-10-30T09:13:47.631Z,8.60
2022-10-30T09:16:45.084Z,9.40
2022-10-30T09:19:42.623Z,8.90
2022-10-30T09:22:40.097Z,7.80
2022-10-30T09:25:37.564Z,7.30
2022-10-30T09:28:35.030Z,8.00
2022-10-30T09:31:32.485Z,6.90
2022-10-30T09:34:31.021Z,8.80
2022-10-30T09:37:28.505Z,7.30
2022-10-30T09:40:25.992Z,8.70
2022-10-30T09:43:24.758Z,8.20
2022-10-30T09:46:22.230Z,8.90
2022-10-30T09:49:19.674Z,9.50
2022-10-30T09:52:17.125Z,7.70
2022-10-30T09:55:14.581Z,8.30
2022-10-30T09:58:12.045Z,8.40
2022-10-30T10:01:09.953Z,8.10
2022-10-30T10:04:07.472Z,8.20
2022-10-30T10:07:04.921Z,8.60
2022-10-30T10:10:02.657Z,8.00
2022-10-30T10:13:01.411Z,8.20
2022-10-30T10:15:59.257Z,7.80
2022-10-30T10:18:56.713Z,7.90
2022-10-30T10:21:54.179Z,10.80
2022-10-30T10:24:51.629Z,8.10
2022-10-30T10:27:49.092Z,8.10
2022-10-30T10:30:46.520Z,8.10
2022-10-30T10:33:43.987Z,7.40
2022-10-30T10:36:41.429Z,7.40
2022-10-30T10:39:38.878Z,9.90
2022-10-30T10:42:36.340Z,8.20
2022-10-30T10:45:33.845Z,9.60
2022-10-30T10:48:31.324Z,11.40
2022-10-30T10:51:28.785Z,10.20
2022-10-30T10:54:26.247Z,10.10
2022-10-30T10:57:23.705Z,12.30
2022-10-30T11:00:21.248Z,9.70
2022-10-30T11:03:18.749Z,15.50
2022-10-30T11:06:16.242Z,16.40
2022-10-30T11:09:13.695Z,15.10
2022-10-30T11:12:11.139Z,11.60
2022-10-30T11:15:08.748Z,11.50
2022-10-30T11:21:09.268Z,10.60
2022-10-30T11:24:06.695Z,10.20
2022-10-30T11:27:04.164Z,10.90
2022-10-30T11:30:01.641Z,12.20
2022-10-30T11:32:59.229Z,10.70
2022-10-30T11:35:56.810Z,10.00
2022-10-30T11:38:54.252Z,12.60
2022-10-30T11:41:54.778Z,10.60
2022-10-30T11:44:53.082Z,10.90
2022-10-30T11:47:50.527Z,11.10
2022-10-30T11:50:48.000Z,12.10
2022-10-30T11:53:45.452Z,13.50
2022-10-30T11:56:42.912Z,11.70
2022-10-30T11:59:40.367Z,11.10
2022-10-30T12:05:42.552Z,11.80
2022-10-30T12:08:42.490Z,13.50
2022-10-30T12:11:39.988Z,10.60
2022-10-30T12:14:37.423Z,10.60
2022-10-30T12:17:34.902Z,12.90
2022-10-30T12:20:32.358Z,12.20
2022-10-30T12:23:29.813Z,12.00
2022-10-30T12:26:27.607Z,11.20
2022-10-30T12:29:36.505Z,14.30
2022-10-30T12:32:42.461Z,13.00
2022-10-30T12:35:39.913Z,11.70
2022-10-30T12:38:37.386Z,14.10
2022-10-30T12:41:34.866Z,14.70
2022-10-30T12:44:32.376Z,14.70
2022-10-30T12:47:29.859Z,13.00
2022-10-30T12:50:27.309Z,14.50
2022-10-30T12:53:24.753Z,18.00
2022-10-30T12:56:22.224Z,16.60
2022-10-30T12:59:19.682Z,16.90
2022-10-30T13:02:17.333Z,15.80
2022-10-30T13:05:14.852Z,15.30
2022-10-30T13:08:12.312Z,15.20
2022-10-30T13:11:09.780Z,15.80
2022-10-30T13:14:07.238Z,17.60
2022-10-30T13:17:04.699Z,17.50
2022-10-30T13:20:02.152Z,18.40
2022-10-30T13:22:59.850Z,21.40
2022-10-30T13:25:57.715Z,17.60
2022-10-30T13:28:55.178Z,15.80
2022-10-30T13:31:52.619Z,20.00
2022-10-30T13:34:50.091Z,21.60
2022-10-30T13:37:47.560Z,20.30
2022-10-30T13:40:45.020Z,24.80
2022-10-30T13:43:43.159Z,27.20
2022-10-30T13:46:40.953Z,26.10
2022-10-30T13:49:38.418Z,29.50
2022-10-30T13:52:35.853Z,31.50
2022-10-30T13:55:33.308Z,28.70
2022-10-30T13:58:30.744Z,21.50
2022-10-30T14:01:28.294Z,23.50
2022-10-30T14:04:26.692Z,25.60
2022-10-30T14:07:24.132Z,19.70
2022-10-30T14:10:21.611Z,22.40
2022-10-30T14:13:19.039Z,23.50
2022-10-30T14:16:16.539Z,20.90
2022-10-30T14:19:13.981Z,21.00
2022-10-30T14:22:11.450Z,21.20
2022-10-30T14:25:08.909Z,17.50
2022-10-30T14:28:06.366Z,18.20
2022-10-30T14:31:03.824Z,25.70
2022-10-30T14:34:01.744Z,26.20
2022-10-30T14:36:59.525Z,19.60
2022-10-30T14:39:57.054Z,19.50
2022-10-30T14:42:54.528Z,19.50
2022-10-30T14:45:52.307Z,18.10
2022-10-30T14:48:50.262Z,19.50
2022-10-30T14:51:47.734Z,20.80
2022-10-30T14:54:45.182Z,21.50
2022-10-30T14:57:42.740Z,19.50
2022-10-30T15:00:40.381Z,18.70
2022-10-30T15:03:37.820Z,19.60
2022-10-30T15:06:35.243Z,21.60
2022-10-30T15:09:32.739Z,20.20
2022-10-30T15:12:30.221Z,21.10
2022-10-30T15:15:27.699Z,18.30
2022-10-30T15:18:29.406Z,21.90
2022-10-30T15:21:29.893Z,19.20
2022-10-30T15:24:32.162Z,24.60
2022-10-30T15:27:30.003Z,21.30
2022-10-30T15:30:27.468Z,22.50
2022-10-30T15:33:25.269Z,20.20
2022-10-30T15:36:23.047Z,22.30
2022-10-30T15:39:20.836Z,20.30
2022-10-30T15:42:18.267Z,20.20
2022-10-30T15:45:15.750Z,59.70
2022-10-30T15:48:13.196Z,61.80
2022-10-30T15:51:10.649Z,40.60
2022-10-30T15:54:08.521Z,28.30
2022-10-30T15:57:42.869Z,23.20
2022-10-30T16:00:24.015Z,21.40
2022-10-30T16:03:21.920Z,19.80
2022-10-30T16:06:19.631Z,22.30
2022-10-30T16:09:17.147Z,21.00
2022-10-30T16:12:14.603Z,21.70
2022-10-30T16:15:12.178Z,25.10
2022-10-30T16:18:09.617Z,20.90
2022-10-30T16:21:07.069Z,25.30
2022-10-30T16:24:04.605Z,23.50
2022-10-30T16:27:02.043Z,24.70
2022-10-30T16:29:59.942Z,25.20
2022-10-30T16:32:58.040Z,24.00
2022-10-30T16:35:56.157Z,26.90
2022-10-30T16:38:53.835Z,25.70
2022-10-30T16:41:51.426Z,24.90
2022-10-30T16:44:48.898Z,27.80
2022-10-30T16:47:47.825Z,26.70
2022-10-30T16:50:45.736Z,23.80
2022-10-30T16:53:43.191Z,28.20
2022-10-30T16:56:46.603Z,28.10
2022-10-30T16:59:44.056Z,26.90
2022-10-30T17:02:42.209Z,23.60
2022-10-30T17:05:39.793Z,26.90
2022-10-30T17:08:37.650Z,24.10
2022-10-30T17:11:35.711Z,26.50
2022-10-30T17:14:36.440Z,30.80
2022-10-30T17:17:33.928Z,24.70
2022-10-30T17:20:32.413Z,25.40
2022-10-30T17:23:29.908Z,34.60
2022-10-30T17:26:27.511Z,31.50
2022-10-30T17:29:25.088Z,29.20
2022-10-30T17:32:23.303Z,26.30
2022-10-30T17:35:21.376Z,29.70
2022-10-30T17:38:19.476Z,26.40
2022-10-30T17:41:17.673Z,27.20
2022-10-30T17:44:16.520Z,24.00
2022-10-30T17:47:14.866Z,28.80
2022-10-30T17:50:13.178Z,29.90
2022-10-30T17:53:12.018Z,29.60
2022-10-30T17:56:09.782Z,38.40
2022-10-30T17:59:08.025Z,31.40
2022-10-30T18:02:05.822Z,31.80
2022-10-30T18:05:03.547Z,28.40
2022-10-30T18:08:02.037Z,29.60
2022-10-30T18:11:01.111Z,27.20
2022-10-30T18:13:58.692Z,25.70
2022-10-30T18:16:56.475Z,25.60
2022-10-30T18:19:54.425Z,22.40
2022-10-30T18:22:53.061Z,23.80
2022-10-30T18:25:51.517Z,26.60
2022-10-30T18:28:49.406Z,25.20
2022-10-30T18:31:47.411Z,26.20
2022-10-30T18:34:45.661Z,28.00
2022-10-30T18:37:44.703Z,24.10
2022-10-30T18:40:43.201Z,29.70
2022-10-30T18:43:46.915Z,26.50
2022-10-30T18:46:48.624Z,23.70
2022-10-30T18:49:46.373Z,27.30
2022-10-30T18:52:44.910Z,24.50
2022-10-30T18:55:44.644Z,20.50
2022-10-30T18:58:46.042Z,20.10
2022-10-30T19:01:45.072Z,22.60
2022-10-30T19:04:43.162Z,33.30
2022-10-30T19:07:40.852Z,32.80
2022-10-30T19:10:38.904Z,26.90
2022-10-30T19:13:37.339Z,21.00
2022-10-30T19:16:37.026Z,19.80
2022-10-30T19:19:38.016Z,20.80
2022-10-30T19:22:35.890Z,19.00
2022-10-30T19:25:34.394Z,20.30
2022-10-30T19:28:33.029Z,20.40
2022-10-30T19:31:32.357Z,25.30
2022-10-30T19:34:30.743Z,20.60
2022-10-30T19:37:28.564Z,17.90
2022-10-30T19:40:27.031Z,17.70
2022-10-30T19:43:25.294Z,15.20
2022-10-30T19:46:23.954Z,16.50
2022-10-30T19:49:22.154Z,17.50
2022-10-30T19:52:21.457Z,17.80
2022-10-30T19:55:24.947Z,17.20
2022-10-30T20:01:24.899Z,17.90
2022-10-30T20:04:23.865Z,17.90
2022-10-30T20:07:24.386Z,16.00
2022-10-30T20:10:22.723Z,17.60
2022-10-30T20:13:23.407Z,17.70
2022-10-30T20:16:23.434Z,19.80
2022-10-30T20:19:21.693Z,17.80
2022-10-30T20:22:22.192Z,18.30
2022-10-30T20:25:24.537Z,18.80
2022-10-30T20:28:24.518Z,16.80
2022-10-30T20:31:35.695Z,18.60
2022-10-30T20:34:33.786Z,16.40
2022-10-30T20:37:31.600Z,16.30
2022-10-30T20:40:29.925Z,14.90
2022-10-30T20:43:28.504Z,13.80
2022-10-30T20:46:27.918Z,16.40
2022-10-30T20:49:26.127Z,13.30
2022-10-30T20:52:23.845Z,15.60
2022-10-30T20:55:22.213Z,14.60
2022-10-30T20:58:24.464Z,15.30
2022-10-30T21:01:22.286Z,14.20
2022-10-30T21:04:20.019Z,11.20
2022-10-30T21:07:17.909Z,14.00
2022-10-30T21:10:15.964Z,16.00
2022-10-30T21:13:13.556Z,17.60
2022-10-30T21:16:11.157Z,15.10
2022-10-30T21:22:52.342Z,14.10
2022-10-30T21:25:52.704Z,17.70
2022-10-30T21:29:17.857Z,18.40
2022-10-30T21:32:15.443Z,36.50
2022-10-30T21:35:13.142Z,32.70
2022-10-30T21:38:25.445Z,16.70
2022-10-30T21:41:31.181Z,18.80
2022-10-30T21:52:01.485Z,17.30
2022-10-30T21:54:58.942Z,12.80
2022-10-30T21:58:05.706Z,14.60
2022-10-30T22:01:15.349Z,11.80
2022-10-30T22:04:38.105Z,15.00
2022-10-30T22:07:40.898Z,12.20
2022-10-30T22:10:38.684Z,13.10
2022-10-30T22:13:36.261Z,14.10
2022-10-30T22:16:43.032Z,10.70
2022-10-30T22:19:40.574Z,14.50
2022-10-30T22:22:39.912Z,13.40
2022-10-30T22:25:42.942Z,13.10
2022-10-30T22:28:40.425Z,12.10
2022-10-30T22:31:37.951Z,13.10
2022-10-30T22:34:37.451Z,12.10
2022-10-30T22:37:34.939Z,13.50
2022-10-30T22:41:31.405Z,14.60
2022-10-30T22:44:00.266Z,14.50
2022-10-30T22:47:21.416Z,15.20
2022-10-30T22:50:19.203Z,16.90
2022-10-30T22:53:16.666Z,14.80
2022-10-30T22:56:14.091Z,15.60
2022-10-30T22:59:14.339Z,14.60
2022-10-30T23:02:11.877Z,14.30
2022-10-30T23:05:09.394Z,14.00
2022-10-30T23:08:06.911Z,14.60
2022-10-30T23:11:04.336Z,14.80
2022-10-30T23:14:21.699Z,15.10
2022-10-30T23:17:19.227Z,13.50
2022-10-30T23:20:16.763Z,13.60
2022-10-30T23:23:14.383Z,13.00
2022-10-30T23:26:12.107Z,14.20
2022-10-30T23:29:09.997Z,13.50
2022-10-30T23:32:10.612Z,14.20
2022-10-30T23:35:29.551Z,15.00
2022-10-30T23:38:27.104Z,14.20
2022-10-30T23:41:24.614Z,12.50
2022-10-30T23:44:22.056Z,12.30
2022-10-30T23:47:42.738Z,12.80
2022-10-30T23:50:42.299Z,12.40
2022-10-30T23:53:39.768Z,12.50
2022-10-30T23:56:37.214Z,13.50
2022-10-30T23:59:34.673Z,14.30
